Lowndesboro, Alabama
Current Conditions -  °F | °C
As of 12:53 PM on Sunday 21 Dec 2014 (Local Time) from KMGM Reporting Station
Overcast Overcast  
Wind Chill: 56°   Ceiling: 1400
Heat Index: 56°   Visibility: 10mi
Dew Point: 48°   Wind: 8mph
Humidity: 75%   Direction: 40°NE
Pressure: 30.08"   Gusts: NA
Location:  32.28°N, 86.61°W
Report Text: KMGM 211853Z 04007KT 10SM OVC014 13/09 A3008 RMK AO2 SLP187 T01330089
Loading
Personal Weather Stations






























Interactive Weather Map New forecast layout! Learn more

10-Day Weather Forecast

Advertisements
Track Severe Weather on mobile